Time;durP1;ratioP1;P1;durP2;ratioP2;P2;SDS_P1;SDS_P2;PMS_P1;PMS_P2;Temp;Humidity;BMP_temperature;BMP_pressure;BME280_temperature;BME280_humidity;BME280_pressure;Samples;Min_cycle;Max_cycle;Signal;HPM_P1;HPM_P2
2022/11/07 00:00:17;;;;;;;3.38;1.60;;;;;;;-140.72;100.00;52987.47;5027633;28;20171;-71
2022/11/07 00:02:43;;;;;;;2.55;1.40;;;;;;;-140.72;100.00;52959.06;5027646;28;20441;-69
2022/11/07 00:05:08;;;;;;;3.10;1.50;;;;;;;-140.72;100.00;52967.16;5008291;28;20033;-68
2022/11/07 00:07:34;;;;;;;1.95;1.08;;;;;;;-140.72;100.00;52942.81;5025906;28;20036;-68
2022/11/07 00:10:01;;;;;;;2.83;1.10;;;;;;;-140.72;100.00;52981.38;5027630;28;20030;-68
2022/11/07 00:12:27;;;;;;;5.00;1.77;;;;;;;-140.72;100.00;53009.78;5028908;28;20056;-69
2022/11/07 00:14:52;;;;;;;4.97;1.55;;;;;;;-140.72;100.00;52983.41;5026948;28;20540;-68
2022/11/07 00:17:18;;;;;;;2.88;1.38;;;;;;;-140.72;100.00;52938.75;5028884;28;20128;-69
2022/11/07 00:19:44;;;;;;;5.65;2.30;;;;;;;-140.72;100.00;52977.31;5027592;28;20025;-70
2022/11/07 00:22:09;;;;;;;2.58;1.73;;;;;;;-140.72;100.00;52985.44;5027523;28;20021;-68
2022/11/07 00:24:34;;;;;;;4.10;1.48;;;;;;;-140.72;100.00;53015.88;5028216;28;20043;-69
2022/11/07 00:27:00;;;;;;;2.67;1.13;;;;;;;-140.72;100.00;52959.06;5028329;28;20036;-69
2022/11/07 00:29:25;;;;;;;2.88;0.73;;;;;;;-140.72;100.00;52991.53;5027187;28;20095;-69
2022/11/07 00:31:51;;;;;;;4.07;1.60;;;;;;;-140.72;100.00;52999.66;5028122;28;20030;-69
2022/11/07 00:34:16;;;;;;;6.70;1.92;;;;;;;-140.72;100.00;53003.69;5029780;28;20053;-68
2022/11/07 00:36:42;;;;;;;7.88;1.73;;;;;;;-140.72;100.00;52995.59;5030546;28;20025;-69
2022/11/07 00:39:09;;;;;;;6.38;1.23;;;;;;;-140.72;100.00;52993.56;5031272;28;20040;-69
2022/11/07 00:41:34;;;;;;;2.75;1.02;;;;;;;-140.72;100.00;53030.09;5031954;28;20029;-68
2022/11/07 00:43:59;;;;;;;1.98;0.88;;;;;;;-140.72;100.00;52985.44;5030716;28;20045;-70
2022/11/07 00:46:25;;;;;;;2.92;1.00;;;;;;;-140.72;100.00;52957.03;5031372;28;20113;-69
2022/11/07 00:48:50;;;;;;;2.92;0.88;;;;;;;-140.72;100.00;52934.69;5031658;28;20049;-68
2022/11/07 00:51:17;;;;;;;10.13;1.67;;;;;;;-140.72;100.00;52977.31;5030427;28;20084;-69
2022/11/07 00:53:43;;;;;;;4.38;1.23;;;;;;;-140.72;100.00;52942.81;5031304;28;20018;-69
2022/11/07 00:56:11;;;;;;;2.13;0.95;;;;;;;-140.72;100.00;52952.97;5031812;28;20039;-68
2022/11/07 00:58:37;;;;;;;5.78;1.40;;;;;;;-140.72;100.00;52999.66;5030832;28;20098;-69
2022/11/07 01:01:14;;;;;;;8.27;1.65;;;;;;;-140.72;100.00;52955.00;5030571;28;20033;-69
2022/11/07 01:06:26;;;;;;;4.28;0.88;;;;;;;-140.72;100.00;52995.59;5030735;28;20039;-68
2022/11/07 01:08:53;;;;;;;5.60;1.02;;;;;;;-140.72;100.00;52979.34;5030754;28;20467;-71
2022/11/07 01:11:19;;;;;;;3.38;1.25;;;;;;;-140.72;100.00;52975.28;5030314;28;20050;-69
2022/11/07 01:13:44;;;;;;;3.55;1.20;;;;;;;-140.72;100.00;52957.03;5030535;28;20022;-68
2022/11/07 01:16:10;;;;;;;5.38;1.25;;;;;;;-140.72;100.00;52963.13;5031451;28;20482;-68
2022/11/07 01:18:35;;;;;;;7.70;1.55;;;;;;;-140.72;100.00;52952.97;5030256;28;20453;-67
2022/11/07 01:21:05;;;;;;;2.03;0.80;;;;;;;-140.72;100.00;52983.41;5030740;28;20463;-68
2022/11/07 01:23:30;;;;;;;7.40;1.02;;;;;;;-140.72;100.00;52967.16;5031184;28;20039;-71
2022/11/07 01:25:56;;;;;;;1.05;0.57;;;;;;;-140.72;100.00;53009.78;5029875;28;20037;-68
2022/11/07 01:28:21;;;;;;;4.32;1.35;;;;;;;-140.72;100.00;52991.53;5030629;28;20372;-67
2022/11/07 01:30:47;;;;;;;1.42;0.82;;;;;;;-140.72;100.00;52983.41;5030899;28;20021;-68
2022/11/07 01:33:12;;;;;;;2.60;1.17;;;;;;;-140.72;100.00;53007.75;5030066;28;20087;-70
2022/11/07 01:35:38;;;;;;;2.60;1.17;;;;;;;-140.72;100.00;52995.59;5030485;28;20631;-69
2022/11/07 01:38:04;;;;;;;8.10;2.05;;;;;;;-140.72;100.00;52965.16;5030558;28;20189;-70
2022/11/07 01:40:30;;;;;;;2.13;0.77;;;;;;;-140.72;100.00;52995.59;5029705;28;20118;-68
2022/11/07 01:42:55;;;;;;;3.88;1.15;;;;;;;-140.72;100.00;52959.06;5027320;28;20064;-69
2022/11/07 01:45:24;;;;;;;1.48;0.98;;;;;;;-140.72;100.00;52975.28;5028964;28;20467;-68
2022/11/07 01:47:53;;;;;;;3.83;1.15;;;;;;;-140.72;100.00;52934.69;5028843;28;20091;-71
2022/11/07 01:50:22;;;;;;;4.55;1.13;;;;;;;-140.72;100.00;52967.16;5029950;28;20115;-69
2022/11/07 01:52:50;;;;;;;9.02;1.70;;;;;;;-140.72;100.00;53026.03;5026392;28;20278;-69
2022/11/07 01:55:20;;;;;;;2.13;1.10;;;;;;;-140.72;100.00;52987.47;5030410;28;20466;-69
2022/11/07 01:57:52;;;;;;;7.45;1.35;;;;;;;-140.72;100.00;52983.41;5030343;28;20105;-69
2022/11/07 02:00:20;;;;;;;8.93;1.83;;;;;;;-140.72;100.00;52983.41;5029457;28;20309;-69
2022/11/07 02:02:48;;;;;;;3.17;1.02;;;;;;;-140.72;100.00;52965.16;5029309;28;20025;-69
2022/11/07 02:05:19;;;;;;;5.97;1.73;;;;;;;-140.72;100.00;52967.16;5029972;28;20029;-68
2022/11/07 02:07:45;;;;;;;2.47;0.77;;;;;;;-140.72;100.00;52967.16;5029590;28;20030;-68
2022/11/07 02:10:12;;;;;;;3.88;1.17;;;;;;;-140.72;100.00;52991.53;5029775;28;20108;-71
2022/11/07 02:12:41;;;;;;;5.15;1.25;;;;;;;-140.72;100.00;52985.44;5029874;28;20029;-71
2022/11/07 02:15:08;;;;;;;2.88;1.48;;;;;;;-140.72;100.00;52936.72;5029395;28;20028;-67
2022/11/07 02:17:34;;;;;;;1.52;0.77;;;;;;;-140.72;100.00;53007.75;5030288;28;20033;-70
2022/11/07 02:19:59;;;;;;;4.15;1.23;;;;;;;-140.72;100.00;52987.47;5029349;28;20025;-68
2022/11/07 02:22:58;;;;;;;4.60;1.35;;;;;;;-140.72;100.00;52983.41;5029273;28;20099;-69
2022/11/07 02:25:24;;;;;;;2.55;1.17;;;;;;;-140.72;100.00;52967.16;5026749;28;20041;-68
2022/11/07 02:27:53;;;;;;;6.00;1.45;;;;;;;-140.72;100.00;52946.88;5028813;28;20084;-70
2022/11/07 02:30:23;;;;;;;4.05;1.30;;;;;;;-140.72;100.00;52985.44;5029666;28;20034;-69
2022/11/07 02:32:49;;;;;;;3.55;1.15;;;;;;;-140.72;100.00;53007.75;5028670;28;20391;-69
2022/11/07 02:35:39;;;;;;;3.67;1.38;;;;;;;-140.72;100.00;52981.38;5030792;28;20044;-69
2022/11/07 02:38:10;;;;;;;;;;;;;;;-140.72;100.00;52934.69;5029991;28;20083;-69
2022/11/07 02:40:36;;;;;;;4.78;1.42;;;;;;;-140.72;100.00;52981.38;5029647;28;20273;-69
2022/11/07 02:43:03;;;;;;;2.50;1.20;;;;;;;-140.72;100.00;52977.31;5029465;28;20037;-70
2022/11/07 02:45:33;;;;;;;2.25;1.42;;;;;;;-140.72;100.00;52973.25;5027709;28;20057;-69
2022/11/07 02:47:58;;;;;;;1.40;0.70;;;;;;;-140.72;100.00;52991.53;5029635;28;20380;-70
2022/11/07 02:50:24;;;;;;;1.83;1.08;;;;;;;-140.72;100.00;52975.28;5028236;28;20052;-69
2022/11/07 02:52:49;;;;;;;6.32;1.55;;;;;;;-140.72;100.00;52995.59;5028948;28;20079;-69
2022/11/07 02:55:15;;;;;;;4.50;0.63;;;;;;;-140.72;100.00;52997.63;5029183;28;20021;-69
2022/11/07 02:57:41;;;;;;;2.72;1.00;;;;;;;-140.72;100.00;52955.00;5028575;28;20025;-67
2022/11/07 03:00:09;;;;;;;1.17;0.70;;;;;;;-140.72;100.00;53019.94;5029494;28;20024;-69
2022/11/07 03:02:34;;;;;;;6.22;1.67;;;;;;;-140.72;100.00;53017.91;5029354;28;20021;-68
2022/11/07 03:05:00;;;;;;;2.15;1.20;;;;;;;-140.72;100.00;53003.69;5028465;28;20064;-69
2022/11/07 03:07:26;;;;;;;4.75;0.80;;;;;;;-140.72;100.00;53019.94;5029358;28;20072;-71
2022/11/07 03:09:51;;;;;;;4.07;1.15;;;;;;;-140.72;100.00;52940.78;5028923;28;20048;-70
2022/11/07 03:12:19;;;;;;;3.60;1.80;;;;;;;-140.72;100.00;52946.88;5028543;28;20026;-71
2022/11/07 03:14:44;;;;;;;4.53;1.27;;;;;;;-140.72;100.00;52999.66;5028629;28;20105;-70
2022/11/07 03:17:10;;;;;;;2.70;1.10;;;;;;;-140.72;100.00;52965.16;5028427;28;20037;-69
2022/11/07 03:19:35;;;;;;;5.80;1.30;;;;;;;-140.72;100.00;53003.69;5028754;28;20068;-71
2022/11/07 03:22:00;;;;;;;1.55;0.95;;;;;;;-140.72;100.00;53028.06;5029576;28;20029;-71
2022/11/07 03:24:26;;;;;;;2.22;1.05;;;;;;;-140.72;100.00;52975.28;5028806;28;20099;-70
2022/11/07 03:26:51;;;;;;;10.40;1.25;;;;;;;-140.72;100.00;52967.16;5029106;28;20148;-69
2022/11/07 03:29:17;;;;;;;3.35;1.48;;;;;;;-140.72;100.00;52975.28;5029390;28;20061;-69
2022/11/07 03:31:42;;;;;;;3.70;1.50;;;;;;;-140.72;100.00;52967.16;5027763;28;20064;-71
2022/11/07 03:34:08;;;;;;;3.75;1.27;;;;;;;-140.72;100.00;52977.31;5022565;28;20112;-70
2022/11/07 03:36:33;;;;;;;4.40;1.83;;;;;;;-140.72;100.00;52967.16;5036797;28;20040;-70
2022/11/07 03:38:59;;;;;;;6.95;1.25;;;;;;;-140.72;100.00;53003.69;5026019;28;20033;-69
2022/11/07 03:41:24;;;;;;;1.77;0.80;;;;;;;-140.72;100.00;52987.47;5027532;28;20035;-69
2022/11/07 03:43:50;;;;;;;6.68;1.45;;;;;;;-140.72;100.00;52971.22;5037649;28;20067;-72
2022/11/07 03:46:16;;;;;;;5.85;1.92;;;;;;;-140.72;100.00;52955.00;5028764;28;20083;-71
2022/11/07 03:48:42;;;;;;;6.82;1.45;;;;;;;-140.72;100.00;52985.44;5027736;28;20044;-71
2022/11/07 03:51:09;;;;;;;6.03;1.40;;;;;;;-140.72;100.00;52946.88;5027571;28;20563;-69
2022/11/07 03:53:35;;;;;;;4.50;1.13;;;;;;;-140.72;100.00;52983.41;5028322;28;20029;-69
2022/11/07 03:56:07;;;;;;;2.30;1.10;;;;;;;-140.72;100.00;52971.22;5028054;28;20087;-68
2022/11/07 03:58:32;;;;;;;7.95;1.85;;;;;;;-140.72;100.00;53005.72;5029100;28;20121;-69
2022/11/07 04:00:57;;;;;;;5.75;1.63;;;;;;;-140.72;100.00;52975.28;5028365;28;20178;-68
2022/11/07 04:03:23;;;;;;;5.13;1.58;;;;;;;-140.72;100.00;52989.50;5028613;28;20108;-71
2022/11/07 04:05:48;;;;;;;3.20;1.42;;;;;;;-140.72;100.00;52957.03;5028939;28;20022;-68
2022/11/07 04:08:13;;;;;;;1.85;1.00;;;;;;;-140.72;100.00;52987.47;5015631;28;20120;-71
2022/11/07 04:10:39;;;;;;;4.30;1.65;;;;;;;-140.72;100.00;52955.00;5031757;28;20041;-69
2022/11/07 04:18:32;;;;;;;4.13;1.40;;;;;;;-140.72;100.00;52991.53;5032560;28;20056;-69
2022/11/07 04:20:58;;;;;;;5.97;1.63;;;;;;;-140.72;100.00;52952.97;5031773;28;20033;-69
2022/11/07 04:23:23;;;;;;;4.13;1.20;;;;;;;-140.72;100.00;52979.34;5032918;28;20530;-71
2022/11/07 04:28:32;;;;;;;4.57;1.50;;;;;;;-140.72;100.00;52991.53;5021761;28;20068;-67
2022/11/07 04:30:58;;;;;;;5.75;2.00;;;;;;;-140.72;100.00;52973.25;5032407;28;20061;-68
2022/11/07 04:33:23;;;;;;;2.75;1.75;;;;;;;-140.72;100.00;52985.44;5032713;28;20079;-69
2022/11/07 04:35:48;;;;;;;6.70;1.67;;;;;;;-140.72;100.00;52997.63;5031993;28;20021;-69
2022/11/07 04:38:14;;;;;;;5.43;1.30;;;;;;;-140.72;100.00;52955.00;5032363;28;20071;-69
2022/11/07 04:40:39;;;;;;;11.63;1.70;;;;;;;-140.72;100.00;52991.53;5031687;28;20102;-69
2022/11/07 04:43:07;;;;;;;6.68;1.27;;;;;;;-140.72;100.00;52963.13;5041447;28;20180;-69
2022/11/07 04:45:34;;;;;;;5.70;1.73;;;;;;;-140.72;100.00;52981.38;5032551;28;20025;-69
2022/11/07 04:47:59;;;;;;;6.38;2.10;;;;;;;-140.72;100.00;52971.22;5026141;28;20371;-69
2022/11/07 04:50:25;;;;;;;7.82;1.23;;;;;;;-140.72;100.00;53003.69;5031180;28;20051;-68
2022/11/07 04:52:50;;;;;;;6.35;1.73;;;;;;;-140.72;100.00;53005.72;5031786;28;20479;-69
2022/11/07 04:55:19;;;;;;;6.90;1.35;;;;;;;-140.72;100.00;52971.22;5019632;28;20591;-68
2022/11/07 04:57:45;;;;;;;6.90;0.93;;;;;;;-140.72;100.00;52985.44;5017514;28;20037;-67
2022/11/07 05:00:10;;;;;;;5.45;1.05;;;;;;;-140.72;100.00;52969.19;5032156;28;20029;-69
2022/11/07 05:02:36;;;;;;;5.05;1.23;;;;;;;-140.72;100.00;53003.69;5031658;28;20025;-68
2022/11/07 05:05:01;;;;;;;5.10;1.42;;;;;;;-140.72;100.00;52930.66;5031610;28;20021;-69
2022/11/07 05:07:27;;;;;;;3.63;1.13;;;;;;;-140.72;100.00;52973.25;5031734;28;20021;-67
2022/11/07 05:09:52;;;;;;;7.38;1.55;;;;;;;-140.72;100.00;52981.38;5029947;28;20545;-68
2022/11/07 05:12:17;;;;;;;3.75;1.33;;;;;;;-140.72;100.00;52977.31;5032070;28;20092;-68
2022/11/07 05:14:43;;;;;;;5.63;2.35;;;;;;;-140.72;100.00;53009.78;5030760;28;20025;-67
2022/11/07 05:17:14;;;;;;;5.55;1.80;;;;;;;-140.72;100.00;52971.22;5030705;28;20038;-70
2022/11/07 05:19:41;;;;;;;3.35;0.95;;;;;;;-140.72;100.00;52948.91;5030324;28;20032;-69
2022/11/07 05:24:51;;;;;;;6.60;1.83;;;;;;;-140.72;100.00;52977.31;5028482;28;20052;-70
2022/11/07 05:27:18;;;;;;;6.72;1.08;;;;;;;-140.72;100.00;52961.09;5030584;28;20462;-71
2022/11/07 05:29:43;;;;;;;3.45;1.30;;;;;;;-140.72;100.00;52979.34;5031021;28;20036;-68
2022/11/07 05:32:09;;;;;;;8.23;1.75;;;;;;;-140.72;100.00;52981.38;5027682;28;20033;-69
2022/11/07 05:34:35;;;;;;;5.38;1.48;;;;;;;-140.72;100.00;53003.69;5027668;28;20455;-69
2022/11/07 05:37:00;;;;;;;4.10;1.80;;;;;;;-140.72;100.00;53030.09;5029885;28;20022;-68
2022/11/07 05:39:25;;;;;;;7.45;1.70;;;;;;;-140.72;100.00;52979.34;5025368;28;20018;-68
2022/11/07 05:41:51;;;;;;;13.50;1.52;;;;;;;-140.72;100.00;52993.56;5031062;28;20105;-68
2022/11/07 05:44:16;;;;;;;9.75;1.80;;;;;;;-140.72;100.00;52967.16;5031701;28;20471;-68
2022/11/07 05:46:41;;;;;;;5.28;1.77;;;;;;;-140.72;100.00;52942.81;5030611;28;20049;-67
2022/11/07 05:49:07;;;;;;;2.35;0.95;;;;;;;-140.72;100.00;52950.94;5009251;28;20399;-68
2022/11/07 05:51:32;;;;;;;3.75;1.38;;;;;;;-140.72;100.00;52995.59;5012096;28;20034;-68
2022/11/07 05:53:58;;;;;;;7.47;1.67;;;;;;;-140.72;100.00;52981.38;5009850;28;20048;-68
2022/11/07 05:56:23;;;;;;;8.55;1.27;;;;;;;-140.72;100.00;52963.13;5011539;28;20044;-70
2022/11/07 05:58:48;;;;;;;7.22;1.88;;;;;;;-140.72;100.00;52971.22;5010117;28;20494;-68
2022/11/07 06:01:14;;;;;;;10.13;2.15;;;;;;;-140.72;100.00;52989.50;5011480;28;20438;-67
2022/11/07 06:03:39;;;;;;;4.15;1.67;;;;;;;-140.72;100.00;52975.28;5010713;28;20037;-69
2022/11/07 06:06:05;;;;;;;11.40;2.15;;;;;;;-140.72;100.00;52997.63;5010532;28;20022;-67
2022/11/07 06:08:30;;;;;;;2.65;1.63;;;;;;;-140.72;100.00;52989.50;5010212;28;20041;-66
2022/11/07 06:10:55;;;;;;;3.47;1.90;;;;;;;-140.72;100.00;52979.34;5009577;28;20037;-68
2022/11/07 06:13:21;;;;;;;5.68;1.27;;;;;;;-140.72;100.00;52975.28;5008400;28;20124;-68
2022/11/07 06:15:46;;;;;;;1.88;1.45;;;;;;;-140.72;100.00;52936.72;5009259;28;20030;-67
2022/11/07 06:18:16;;;;;;;5.78;1.58;;;;;;;-140.72;100.00;52983.41;5008786;28;20033;-67
2022/11/07 06:20:41;;;;;;;7.10;1.67;;;;;;;-140.72;100.00;52948.91;5008175;28;20088;-66
2022/11/07 06:23:07;;;;;;;7.25;1.65;;;;;;;-140.72;100.00;52969.19;5008960;28;20140;-67
2022/11/07 06:25:34;;;;;;;4.53;1.33;;;;;;;-140.72;100.00;52959.06;5010579;28;20416;-70
2022/11/07 06:28:04;;;;;;;4.65;1.83;;;;;;;-140.72;100.00;52946.88;5008342;28;20054;-67
2022/11/07 06:30:30;;;;;;;;;;;;;;;-140.72;100.00;52946.88;5010784;28;20022;-67
2022/11/07 06:32:59;;;;;;;6.43;1.08;;;;;;;-140.72;100.00;52950.94;5008184;28;20055;-69
2022/11/07 06:35:25;;;;;;;7.57;2.13;;;;;;;-140.72;100.00;52942.81;5008581;28;20099;-68
2022/11/07 06:37:50;;;;;;;3.90;1.17;;;;;;;-140.72;100.00;52963.13;5008786;28;20025;-67
2022/11/07 06:40:15;;;;;;;11.18;1.70;;;;;;;-140.72;100.00;52965.16;5005389;28;20027;-69
2022/11/07 06:42:41;;;;;;;7.90;1.95;;;;;;;-140.72;100.00;52955.00;5007472;28;20045;-68
2022/11/07 06:45:06;;;;;;;2.50;0.93;;;;;;;-140.72;100.00;52971.22;5001648;28;20175;-69
2022/11/07 06:47:32;;;;;;;5.93;1.63;;;;;;;-140.72;100.00;52938.75;5011014;28;20025;-67
2022/11/07 06:49:57;;;;;;;4.57;1.63;;;;;;;-140.72;100.00;52975.28;5018173;28;20518;-68
2022/11/07 06:52:22;;;;;;;5.78;1.70;;;;;;;-140.72;100.00;52955.00;5028950;28;20418;-68
2022/11/07 06:54:50;;;;;;;4.80;1.25;;;;;;;-140.72;100.00;52981.38;5028835;28;20045;-68
2022/11/07 06:57:16;;;;;;;11.65;1.40;;;;;;;-140.72;100.00;52946.88;5028253;28;20025;-69
2022/11/07 06:59:41;;;;;;;3.80;1.10;;;;;;;-140.72;100.00;52973.25;5029126;28;20033;-69
2022/11/07 07:02:11;;;;;;;6.15;1.17;;;;;;;-140.72;100.00;53003.69;5028479;28;20021;-68
2022/11/07 07:04:36;;;;;;;7.63;1.80;;;;;;;-140.72;100.00;52936.72;5028914;28;20510;-67
2022/11/07 07:07:01;;;;;;;3.53;1.40;;;;;;;-140.72;100.00;52934.69;5029586;28;20109;-68
2022/11/07 07:09:27;;;;;;;4.30;1.35;;;;;;;-140.72;100.00;52948.91;5028748;28;20065;-67
2022/11/07 07:11:52;;;;;;;3.28;0.82;;;;;;;-140.72;100.00;52969.19;5028543;28;20083;-69
2022/11/07 07:14:18;;;;;;;6.65;1.65;;;;;;;-140.72;100.00;52963.13;5029214;28;20112;-70
2022/11/07 07:16:43;;;;;;;6.22;1.10;;;;;;;-140.72;100.00;53021.97;5027748;28;20071;-68
2022/11/07 07:19:10;;;;;;;3.15;1.20;;;;;;;-140.72;100.00;52969.19;5028609;28;20025;-69
2022/11/07 07:21:36;;;;;;;3.45;1.38;;;;;;;-140.72;100.00;52955.00;5028640;28;20053;-69
2022/11/07 07:24:01;;;;;;;4.30;0.98;;;;;;;-140.72;100.00;52963.13;5028140;28;20139;-70
2022/11/07 07:26:27;;;;;;;3.60;1.00;;;;;;;-140.72;100.00;52993.56;5028264;28;20029;-69
2022/11/07 07:28:52;;;;;;;4.28;1.42;;;;;;;-140.72;100.00;52950.94;5028360;28;20383;-68
2022/11/07 07:31:27;;;;;;;3.63;1.30;;;;;;;-140.72;100.00;52993.56;5026475;28;20033;-68
2022/11/07 07:33:53;;;;;;;4.60;1.05;;;;;;;-140.72;100.00;52981.38;5026259;28;20210;-69
2022/11/07 07:36:20;;;;;;;6.68;1.17;;;;;;;-140.72;100.00;52942.81;5028439;28;20391;-70
2022/11/07 07:38:45;;;;;;;5.82;1.83;;;;;;;-140.72;100.00;52983.41;5027882;28;20033;-69
2022/11/07 07:41:11;;;;;;;6.45;1.75;;;;;;;-140.72;100.00;52950.94;5028589;28;20029;-68
2022/11/07 07:43:36;;;;;;;4.25;1.48;;;;;;;-140.72;100.00;52971.22;5028134;28;20025;-69
2022/11/07 07:46:04;;;;;;;5.55;1.63;;;;;;;-140.72;100.00;52955.00;5028255;28;20029;-69
2022/11/07 07:48:30;;;;;;;2.28;1.08;;;;;;;-140.72;100.00;52957.03;5028754;28;20037;-68
2022/11/07 07:50:56;;;;;;;7.38;1.90;;;;;;;-140.72;100.00;52950.94;5028346;28;20075;-68
2022/11/07 07:53:22;;;;;;;8.02;1.45;;;;;;;-140.72;100.00;52910.34;5028069;28;20029;-69
2022/11/07 07:55:47;;;;;;;9.52;1.50;;;;;;;-140.72;100.00;52934.69;5027870;28;20033;-69
2022/11/07 07:58:13;;;;;;;5.63;1.40;;;;;;;-140.72;100.00;52942.81;5028537;28;20463;-66
2022/11/07 08:00:39;;;;;;;3.05;1.30;;;;;;;-140.72;100.00;52938.75;5027896;28;20079;-68
2022/11/07 08:03:10;;;;;;;10.57;1.95;;;;;;;-140.72;100.00;52924.56;5028626;28;20095;-67
2022/11/07 08:05:37;;;;;;;12.07;1.75;;;;;;;-140.72;100.00;52946.88;5027827;28;20485;-68
2022/11/07 08:08:03;;;;;;;3.78;1.00;;;;;;;-140.72;100.00;52946.88;5028589;28;20033;-68
2022/11/07 08:10:29;;;;;;;2.85;1.05;;;;;;;-140.72;100.00;52918.47;5028140;28;20442;-67
2022/11/07 08:12:54;;;;;;;9.27;2.45;;;;;;;-140.72;100.00;52914.41;5027373;28;20349;-68
2022/11/07 08:15:20;;;;;;;5.93;2.05;;;;;;;-140.72;100.00;52955.00;5028749;28;20482;-69
2022/11/07 08:17:46;;;;;;;5.55;1.25;;;;;;;-140.72;100.00;52989.50;5028424;28;20523;-67
2022/11/07 08:20:14;;;;;;;2.33;1.00;;;;;;;-140.72;100.00;52969.19;5027727;28;20104;-68
2022/11/07 08:22:40;;;;;;;10.13;1.50;;;;;;;-140.72;100.00;52906.28;5027389;28;20040;-68
2022/11/07 08:25:07;;;;;;;3.75;1.55;;;;;;;-140.72;100.00;52950.94;5027819;28;20029;-68
2022/11/07 08:27:39;;;;;;;5.63;1.55;;;;;;;-140.72;100.00;52926.59;5027018;28;20047;-68
2022/11/07 08:30:06;;;;;;;2.22;1.58;;;;;;;-140.72;100.00;52983.41;5025413;28;20032;-68
2022/11/07 08:32:31;;;;;;;5.00;1.60;;;;;;;-140.72;100.00;52944.84;5027432;28;20057;-68
2022/11/07 08:34:57;;;;;;;5.35;1.10;;;;;;;-140.72;100.00;52934.69;5030466;28;20123;-69
2022/11/07 08:37:22;;;;;;;4.43;1.42;;;;;;;-140.72;100.00;52957.03;5027274;28;20444;-68
2022/11/07 08:39:48;;;;;;;5.03;1.20;;;;;;;-140.72;100.00;52944.84;5029768;28;20538;-69
2022/11/07 08:42:13;;;;;;;4.13;1.15;;;;;;;-140.72;100.00;52914.41;5026532;28;20037;-67
2022/11/07 08:44:38;;;;;;;7.30;2.00;;;;;;;-140.72;100.00;52916.44;5027055;28;20107;-67
2022/11/07 08:47:05;;;;;;;3.47;1.60;;;;;;;-140.72;100.00;52920.50;5027458;28;20467;-68
2022/11/07 08:49:30;;;;;;;7.97;1.42;;;;;;;-140.72;100.00;52950.94;5026004;28;20056;-68
2022/11/07 08:51:55;;;;;;;2.40;1.02;;;;;;;-140.72;100.00;52910.34;5026596;28;20308;-68
2022/11/07 08:54:21;;;;;;;4.07;1.25;;;;;;;-140.72;100.00;52946.88;5027296;28;20500;-69
2022/11/07 08:56:47;;;;;;;4.75;1.30;;;;;;;-140.72;100.00;52926.59;5030559;28;20072;-69
2022/11/07 08:59:18;;;;;;;4.60;1.45;;;;;;;-140.72;100.00;52952.97;5028948;28;20151;-69
2022/11/07 09:01:43;;;;;;;3.00;1.10;;;;;;;-140.72;100.00;52952.97;5025247;28;20033;-69
2022/11/07 09:04:09;;;;;;;4.32;1.40;;;;;;;-140.72;100.00;52914.41;5030424;28;20395;-70
2022/11/07 09:06:34;;;;;;;2.97;1.17;;;;;;;-140.72;100.00;52902.22;5031498;28;20235;-69
2022/11/07 09:09:00;;;;;;;7.68;1.48;;;;;;;-140.72;100.00;52934.69;5029528;28;20147;-68
2022/11/07 09:11:26;;;;;;;4.72;1.30;;;;;;;-140.72;100.00;52916.44;5030193;28;20071;-68
2022/11/07 09:13:53;;;;;;;4.93;0.82;;;;;;;-140.72;100.00;52920.50;5029843;28;20033;-68
2022/11/07 09:16:21;;;;;;;4.72;1.58;;;;;;;-140.72;100.00;52912.38;5030891;28;20073;-68
2022/11/07 09:18:48;;;;;;;1.75;0.82;;;;;;;-140.72;100.00;52928.63;5031684;28;20030;-68
2022/11/07 09:21:14;;;;;;;6.15;2.08;;;;;;;-140.72;100.00;52916.44;5030974;28;20029;-68
2022/11/07 09:23:39;;;;;;;7.30;1.95;;;;;;;-140.72;100.00;52892.09;5030521;28;20033;-69
2022/11/07 09:26:06;;;;;;;3.78;0.90;;;;;;;-140.72;100.00;52920.50;5030924;28;20463;-68
2022/11/07 09:28:31;;;;;;;6.05;1.27;;;;;;;-140.72;100.00;52932.66;5030654;28;20032;-68
2022/11/07 09:30:58;;;;;;;6.93;1.42;;;;;;;-140.72;100.00;52955.00;5029046;28;20025;-68
2022/11/07 09:33:24;;;;;;;8.07;1.95;;;;;;;-140.72;100.00;52936.72;5030241;28;20069;-68
2022/11/07 09:35:50;;;;;;;3.65;1.15;;;;;;;-140.72;100.00;52886.00;5028581;28;20475;-67
2022/11/07 09:38:16;;;;;;;2.45;0.90;;;;;;;-140.72;100.00;52930.66;5033597;28;20120;-67
2022/11/07 09:41:23;;;;;;;2.15;1.17;;;;;;;-140.72;100.00;52896.16;5032530;28;20040;-69
2022/11/07 09:44:10;;;;;;;3.75;0.93;;;;;;;-140.72;100.00;52906.28;5031773;28;20049;-69
2022/11/07 09:46:54;;;;;;;8.45;2.05;;;;;;;-140.72;100.00;52883.97;5027472;28;20042;-68
2022/11/07 09:49:32;;;;;;;5.25;1.30;;;;;;;-140.72;100.00;52971.22;5030480;28;20045;-69
2022/11/07 09:51:58;;;;;;;7.28;1.60;;;;;;;-140.72;100.00;52904.25;5031072;28;20041;-68
2022/11/07 09:54:27;;;;;;;4.57;0.93;;;;;;;-140.72;100.00;52938.75;5031340;28;20033;-68
2022/11/07 09:56:54;;;;;;;;;;;;;;;-140.72;100.00;52900.19;5030770;28;20024;-69
2022/11/07 09:59:41;;;;;;;7.30;0.90;;;;;;;-140.72;100.00;52894.13;5029161;28;19909;-69
2022/11/07 10:02:15;;;;;;;1.77;0.93;;;;;;;-140.72;100.00;52888.03;5029853;28;20025;-69
2022/11/07 10:04:41;;;;;;;4.20;0.77;;;;;;;-140.72;100.00;52908.31;5030082;28;20021;-68
2022/11/07 10:07:46;;;;;;;3.47;1.25;;;;;;;-140.72;100.00;52875.84;5028961;28;20029;-70
2022/11/07 10:10:49;;;;;;;2.25;0.90;;;;;;;-140.72;100.00;52906.28;5026541;28;20083;-69
2022/11/07 10:13:33;;;;;;;4.18;0.90;;;;;;;-140.72;100.00;52890.06;5029556;28;20368;-68
2022/11/07 10:16:07;;;;;;;7.88;1.38;;;;;;;-140.72;100.00;52875.84;5032128;28;20493;-68
2022/11/07 10:19:10;;;;;;;2.90;1.15;;;;;;;-140.72;100.00;52928.63;5029925;28;20056;-68
2022/11/07 10:21:35;;;;;;;7.65;1.35;;;;;;;-140.72;100.00;52888.03;5028283;28;20036;-69
2022/11/07 10:24:06;;;;;;;1.42;0.70;;;;;;;-140.72;100.00;52896.16;5029009;28;20033;-69
2022/11/07 10:26:32;;;;;;;7.13;1.65;;;;;;;-140.72;100.00;52890.06;5028658;28;20656;-68
2022/11/07 10:29:28;;;;;;;7.75;2.08;;;;;;;-140.72;100.00;52896.16;5029488;28;20029;-68
2022/11/07 10:32:15;;;;;;;4.93;2.00;;;;;;;-140.72;100.00;52902.22;5024803;28;20507;-69
2022/11/07 10:35:05;;;;;;;2.25;0.93;;;;;;;-140.72;100.00;52902.22;5028330;28;20498;-68
2022/11/07 10:37:30;;;;;;;3.47;1.27;;;;;;;-140.72;100.00;52881.94;5029508;28;20026;-68
2022/11/07 10:39:55;;;;;;;8.82;1.88;;;;;;;-140.72;100.00;52928.63;5028303;28;20225;-68
2022/11/07 10:42:29;;;;;;;3.03;1.00;;;;;;;-140.72;100.00;52894.13;5029525;28;20546;-69
2022/11/07 10:44:55;;;;;;;2.50;1.10;;;;;;;-140.72;100.00;52912.38;5029434;28;20505;-69
2022/11/07 10:47:23;;;;;;;6.47;1.75;;;;;;;-140.72;100.00;52881.94;5028659;28;20029;-69
2022/11/07 10:49:58;;;;;;;4.53;1.30;;;;;;;-140.72;100.00;52877.88;5028653;28;20057;-67
2022/11/07 10:52:24;;;;;;;5.65;1.58;;;;;;;-140.72;100.00;52910.34;5028620;28;20029;-68
2022/11/07 10:54:50;;;;;;;3.35;1.05;;;;;;;-140.72;100.00;52932.66;5007362;28;20059;-68
2022/11/07 10:57:18;;;;;;;5.97;1.15;;;;;;;-140.72;100.00;52896.16;5028727;28;20042;-67
2022/11/07 10:59:52;;;;;;;5.70;1.50;;;;;;;-140.72;100.00;52916.44;5028962;28;20034;-68
2022/11/07 11:02:22;;;;;;;7.85;1.73;;;;;;;-140.72;100.00;52900.19;5028558;28;20278;-67
2022/11/07 11:04:54;;;;;;;4.20;1.48;;;;;;;-140.72;100.00;52906.28;5029181;28;20040;-67
2022/11/07 11:07:23;;;;;;;3.30;1.13;;;;;;;-140.72;100.00;52910.34;5028417;28;20101;-67
2022/11/07 11:09:54;;;;;;;4.43;1.23;;;;;;;-140.72;100.00;52912.38;5027665;28;20029;-68
2022/11/07 11:12:29;;;;;;;3.85;1.92;;;;;;;-140.72;100.00;52914.41;5028987;28;20037;-67
2022/11/07 11:15:15;;;;;;;6.90;1.38;;;;;;;-140.72;100.00;52869.75;5029000;28;20352;-67
2022/11/07 11:17:40;;;;;;;3.88;1.55;;;;;;;-140.72;100.00;52877.88;5027862;28;20060;-68
2022/11/07 11:20:27;;;;;;;6.35;1.50;;;;;;;-140.72;100.00;52894.13;5027413;28;20049;-68
2022/11/07 11:22:53;;;;;;;2.67;1.30;;;;;;;-140.72;100.00;52898.16;5027089;28;20029;-67
2022/11/07 11:25:20;;;;;;;7.55;1.48;;;;;;;-140.72;100.00;52881.94;5028127;28;20102;-67